Time;durP1;ratioP1;P1;durP2;ratioP2;P2;SDS_P1;SDS_P2;PMS_P1;PMS_P2;Temp;Humidity;BMP_temperature;BMP_pressure;BME280_temperature;BME280_humidity;BME280_pressure;Samples;Min_cycle;Max_cycle;Signal;HPM_P1;HPM_P2
2021/04/19 00:00:13;;;;;;;29.07;18.07;;;;;;;4.12;81.65;96458.50;5077376;28;20032;-75
2021/04/19 00:02:41;;;;;;;23.63;15.80;;;;;;;4.16;81.20;96452.97;5052957;28;20043;-76
2021/04/19 00:05:13;;;;;;;24.67;15.47;;;;;;;4.16;81.12;96455.56;5055376;28;20059;-75
2021/04/19 00:07:39;;;;;;;19.63;12.43;;;;;;;4.17;81.14;96454.63;5062920;28;20065;-74
2021/04/19 00:10:07;;;;;;;25.73;15.00;;;;;;;4.16;81.44;96452.97;5071912;28;20036;-76
2021/04/19 00:12:33;;;;;;;24.17;15.93;;;;;;;4.16;80.79;96449.53;5067088;28;20017;-75
2021/04/19 00:14:58;;;;;;;27.53;16.67;;;;;;;4.18;80.80;96447.63;5077999;28;20020;-75
2021/04/19 00:17:24;;;;;;;23.57;16.80;;;;;;;4.19;80.98;96438.88;5059321;28;20041;-75
2021/04/19 00:19:50;;;;;;;24.10;16.40;;;;;;;4.21;80.63;96439.59;5072115;28;20028;-75
2021/04/19 00:22:16;;;;;;;24.23;15.40;;;;;;;4.19;81.11;96439.72;5076558;28;20496;-75
2021/04/19 00:24:41;;;;;;;21.60;14.60;;;;;;;4.24;80.86;96436.78;5081727;28;20525;-75
2021/04/19 00:27:07;;;;;;;23.77;15.47;;;;;;;4.15;81.13;96435.69;5075002;28;20059;-75
2021/04/19 00:29:34;;;;;;;22.33;15.10;;;;;;;4.16;81.16;96441.75;5070279;28;20677;-77
2021/04/19 00:31:59;;;;;;;20.97;14.77;;;;;;;4.19;80.92;96437.13;5064685;28;20093;-75
2021/04/19 00:34:25;;;;;;;24.63;15.07;;;;;;;4.21;80.56;96434.41;5053400;28;20486;-75
2021/04/19 00:36:51;;;;;;;24.50;14.93;;;;;;;4.17;80.63;96433.81;5077210;28;20397;-75
2021/04/19 00:39:17;;;;;;;21.23;14.30;;;;;;;4.19;81.04;96429.31;5063833;28;20029;-74
2021/04/19 00:41:44;;;;;;;21.30;15.60;;;;;;;4.20;80.09;96427.53;5069300;28;20107;-75
2021/04/19 00:44:10;;;;;;;20.93;15.10;;;;;;;4.18;80.67;96425.03;5076926;28;20031;-75
2021/04/19 00:46:36;;;;;;;23.87;16.47;;;;;;;4.18;81.07;96426.81;5072696;28;20075;-75
2021/04/19 00:49:02;;;;;;;22.23;15.07;;;;;;;4.15;80.65;96424.44;5072436;28;20028;-75
2021/04/19 00:51:28;;;;;;;23.23;15.30;;;;;;;4.15;80.29;96421.84;5076950;28;20039;-76
2021/04/19 00:53:54;;;;;;;22.97;14.73;;;;;;;4.12;80.92;96422.06;5075660;28;20380;-76
2021/04/19 00:56:21;;;;;;;22.50;16.20;;;;;;;4.13;80.56;96429.78;5067912;28;20114;-75
2021/04/19 00:58:46;;;;;;;23.27;15.40;;;;;;;4.13;80.38;96428.94;5079132;28;20189;-75
2021/04/19 01:01:13;;;;;;;22.63;15.27;;;;;;;4.15;80.14;96421.84;5065970;28;20119;-75
2021/04/19 01:03:39;;;;;;;22.10;16.37;;;;;;;4.05;81.06;96416.50;5067720;28;20263;-76
2021/04/19 01:06:06;;;;;;;20.30;14.53;;;;;;;4.05;80.35;96416.50;5064207;28;20040;-76
2021/04/19 01:08:34;;;;;;;22.90;14.77;;;;;;;4.07;80.81;96414.63;5080758;28;20062;-75
2021/04/19 01:11:00;;;;;;;25.77;16.17;;;;;;;4.07;80.73;96419.81;5071143;28;20032;-75
2021/04/19 01:13:26;;;;;;;23.30;14.80;;;;;;;4.06;80.73;96414.72;5077093;28;20043;-76
2021/04/19 01:15:52;;;;;;;21.33;14.03;;;;;;;4.07;80.68;96419.00;5077856;28;20024;-75
2021/04/19 01:18:18;;;;;;;26.93;16.33;;;;;;;4.01;80.85;96417.66;5076646;28;20024;-77
2021/04/19 01:20:49;;;;;;;22.13;15.93;;;;;;;4.02;80.64;96419.31;5081110;28;20036;-76
2021/04/19 01:23:17;;;;;;;23.87;15.73;;;;;;;3.99;81.03;96422.16;5061913;28;20039;-75
2021/04/19 01:25:44;;;;;;;21.07;15.23;;;;;;;4.01;80.80;96423.69;5068033;28;20516;-75
2021/04/19 01:28:12;;;;;;;25.17;15.47;;;;;;;3.95;80.56;96420.72;5072989;28;20036;-74
2021/04/19 01:30:42;;;;;;;26.60;17.03;;;;;;;3.93;81.24;96418.25;5064055;28;20040;-77
2021/04/19 01:33:09;;;;;;;25.47;17.30;;;;;;;3.83;81.38;96424.25;5079862;28;20734;-76
2021/04/19 01:35:36;;;;;;;23.73;16.23;;;;;;;3.81;82.18;96418.31;5062598;28;20031;-75
2021/04/19 01:38:05;;;;;;;27.37;17.57;;;;;;;3.73;81.90;96422.31;5064572;28;20062;-75
2021/04/19 01:40:31;;;;;;;29.77;19.03;;;;;;;3.79;82.57;96421.03;5062708;28;20031;-75
2021/04/19 01:42:58;;;;;;;27.13;16.83;;;;;;;3.76;82.20;96421.28;5052308;28;20660;-75
2021/04/19 01:45:24;;;;;;;25.57;17.83;;;;;;;3.78;81.88;96414.16;5077917;28;20112;-75
2021/04/19 01:47:53;;;;;;;29.13;17.83;;;;;;;3.77;81.86;96418.53;5068097;28;20433;-76
2021/04/19 01:50:24;;;;;;;26.63;18.13;;;;;;;3.78;81.99;96412.38;5067319;28;20566;-75
2021/04/19 01:52:53;;;;;;;25.13;16.92;;;;;;;3.81;81.52;96419.13;5059603;28;20077;-76
2021/04/19 01:55:22;;;;;;;28.77;18.23;;;;;;;3.74;82.00;96413.56;5054295;28;20119;-75
2021/04/19 01:57:53;;;;;;;26.13;17.67;;;;;;;3.76;81.87;96410.88;5067933;28;20114;-75
2021/04/19 02:00:23;;;;;;;28.23;17.67;;;;;;;3.73;82.06;96416.28;5076392;28;20036;-76
2021/04/19 02:03:03;;;;;;;28.33;16.73;;;;;;;3.75;82.19;96412.59;5077188;28;20028;-75
2021/04/19 02:06:00;;;;;;;23.97;15.83;;;;;;;3.73;82.24;96404.09;5066892;28;20032;-75
2021/04/19 02:08:33;;;;;;;20.80;14.97;;;;;;;3.74;81.90;96413.56;5075928;28;20132;-76
2021/04/19 02:11:33;;;;;;;23.33;14.90;;;;;;;3.76;82.16;96410.88;5056754;28;20071;-75
2021/04/19 02:14:04;;;;;;;25.17;16.43;;;;;;;3.73;82.06;96405.88;5065883;28;20084;-75
2021/04/19 02:16:44;;;;;;;24.87;16.37;;;;;;;3.72;81.58;96401.59;5049024;28;20053;-75
2021/04/19 02:19:12;;;;;;;23.77;15.63;;;;;;;3.74;81.33;96413.56;5059276;28;20051;-75
2021/04/19 02:21:47;;;;;;;25.20;16.47;;;;;;;3.72;81.67;96409.41;5061481;28;20378;-75
2021/04/19 02:24:18;;;;;;;26.50;17.67;;;;;;;3.70;81.99;96403.50;5079594;28;20111;-77
2021/04/19 02:26:54;;;;;;;23.17;16.03;;;;;;;3.64;82.33;96401.34;5048390;28;20031;-77
2021/04/19 02:29:33;;;;;;;23.97;17.00;;;;;;;3.63;81.83;96405.72;5042365;28;20044;-75
2021/04/19 02:32:04;;;;;;;26.73;17.00;;;;;;;3.55;83.04;96415.84;5059418;28;20123;-76
2021/04/19 02:34:39;;;;;;;22.37;16.33;;;;;;;3.56;82.52;96416.69;5059720;28;20115;-75
2021/04/19 02:37:08;;;;;;;24.93;18.57;;;;;;;3.61;82.87;96411.97;5074907;28;20470;-75
2021/04/19 02:39:39;;;;;;;28.10;17.57;;;;;;;3.61;82.39;96401.56;5073839;28;20028;-75
2021/04/19 02:42:07;;;;;;;23.20;17.20;;;;;;;3.68;81.72;96405.38;5062179;28;20181;-75
2021/04/19 02:44:36;;;;;;;27.63;17.07;;;;;;;3.60;82.44;96405.94;5069751;28;20020;-77
2021/04/19 02:47:15;;;;;;;26.27;17.60;;;;;;;3.61;82.17;96406.78;5078985;28;20035;-75
2021/04/19 02:49:52;;;;;;;24.40;17.23;;;;;;;3.58;82.38;96407.00;5069592;28;20032;-75
2021/04/19 02:52:18;;;;;;;28.50;16.83;;;;;;;3.61;82.29;96402.41;5075456;28;20573;-74
2021/04/19 02:54:46;;;;;;;25.17;17.27;;;;;;;3.64;81.93;96396.16;5069561;28;20055;-75
2021/04/19 02:57:31;;;;;;;23.33;16.03;;;;;;;3.62;82.25;96403.22;5049456;28;20040;-75
2021/04/19 02:59:59;;;;;;;25.53;17.23;;;;;;;3.58;82.04;96401.78;5060623;28;20560;-74
2021/04/19 03:02:29;;;;;;;24.20;16.80;;;;;;;3.62;82.09;96400.63;5058153;28;20028;-75
2021/04/19 03:04:56;;;;;;;24.17;16.53;;;;;;;3.63;82.33;96404.91;5072396;28;20172;-76
2021/04/19 03:07:27;;;;;;;23.03;16.77;;;;;;;3.62;82.01;96403.22;5077098;28;20016;-76
2021/04/19 03:10:00;;;;;;;28.73;18.13;;;;;;;3.59;82.30;96404.31;5059349;28;20056;-75
2021/04/19 03:12:30;;;;;;;24.60;16.50;;;;;;;3.53;82.32;96404.75;5059301;28;20029;-74
2021/04/19 03:15:03;;;;;;;25.63;17.17;;;;;;;3.51;83.05;96399.63;5074871;28;20036;-74
2021/04/19 03:17:32;;;;;;;25.92;17.67;;;;;;;3.45;83.13;96407.88;5083475;28;20028;-75
2021/04/19 03:20:25;;;;;;;26.47;19.37;;;;;;;3.28;84.40;96405.66;5064115;28;20035;-75
2021/04/19 03:23:11;;;;;;;26.33;17.07;;;;;;;3.37;84.02;96410.22;5055209;28;20067;-75
2021/04/19 03:25:48;;;;;;;26.17;17.70;;;;;;;3.44;82.92;96411.41;5060418;28;20082;-75
2021/04/19 03:28:19;;;;;;;23.83;17.27;;;;;;;3.46;82.94;96411.34;5066554;28;20048;-75
2021/04/19 03:30:48;;;;;;;27.17;17.63;;;;;;;3.50;83.62;96410.16;5061904;28;20575;-74
2021/04/19 03:33:16;;;;;;;26.23;16.97;;;;;;;3.51;83.03;96407.44;5060681;28;20449;-75
2021/04/19 03:35:46;;;;;;;26.10;17.10;;;;;;;3.53;82.52;96402.97;5076624;28;20040;-76
2021/04/19 03:38:17;;;;;;;19.63;16.00;;;;;;;3.56;82.43;96403.69;5075088;28;20036;-75
2021/04/19 03:40:47;;;;;;;23.47;16.73;;;;;;;3.59;82.40;96404.31;5065356;28;20438;-75
2021/04/19 03:43:18;;;;;;;24.50;17.00;;;;;;;3.63;82.35;96395.31;5075699;28;20037;-75
2021/04/19 03:46:03;;;;;;;24.97;16.67;;;;;;;3.65;81.77;96392.59;5079744;28;20033;-76
2021/04/19 03:48:41;;;;;;;25.97;16.40;;;;;;;3.65;81.95;96393.41;5078636;28;20044;-75
2021/04/19 03:51:17;;;;;;;24.13;17.33;;;;;;;3.61;81.84;96399.78;5059927;28;20025;-75
2021/04/19 03:53:52;;;;;;;26.90;16.88;;;;;;;3.62;81.85;96392.81;5070617;28;20028;-75
2021/04/19 03:56:22;;;;;;;25.17;17.40;;;;;;;3.48;82.78;96393.81;5064924;28;20565;-75
2021/04/19 03:58:58;;;;;;;24.07;16.83;;;;;;;3.52;82.85;96384.84;5049396;28;20058;-75
2021/04/19 04:01:26;;;;;;;27.43;16.73;;;;;;;3.47;83.29;96387.81;5066944;28;20139;-75
2021/04/19 04:03:57;;;;;;;23.50;16.73;;;;;;;3.45;83.29;96387.06;5056550;28;20042;-74
2021/04/19 04:06:32;;;;;;;24.23;17.27;;;;;;;3.44;83.21;96395.00;5078032;28;20111;-75
2021/04/19 04:09:00;;;;;;;23.20;17.07;;;;;;;3.48;82.57;96394.66;5061321;28;20028;-75
2021/04/19 04:11:27;;;;;;;26.97;17.07;;;;;;;3.54;82.31;96383.81;5078257;28;20020;-75
2021/04/19 04:14:03;;;;;;;34.80;18.53;;;;;;;3.52;82.36;96388.31;5082352;28;20831;-74
2021/04/19 04:16:30;;;;;;;32.57;20.07;;;;;;;3.57;82.51;96385.38;5069922;28;20032;-75
2021/04/19 04:19:08;;;;;;;26.37;17.80;;;;;;;3.56;82.34;96383.72;5074481;28;20028;-75
2021/04/19 04:21:44;;;;;;;27.47;17.93;;;;;;;3.56;82.92;96382.88;5057270;28;20210;-75
2021/04/19 04:24:21;;;;;;;31.50;21.30;;;;;;;3.59;82.77;96387.84;5057107;28;20402;-75
2021/04/19 04:26:47;;;;;;;32.33;21.63;;;;;;;3.55;82.54;96395.03;5069240;28;20798;-77
2021/04/19 04:29:13;;;;;;;31.30;20.10;;;;;;;3.61;82.81;96391.16;5053569;28;20025;-75
2021/04/19 04:31:44;;;;;;;25.20;16.47;;;;;;;3.62;82.52;96382.41;5078043;28;20028;-75
2021/04/19 04:34:13;;;;;;;25.73;17.53;;;;;;;3.61;82.23;96391.16;5055032;28;20549;-75
2021/04/19 04:36:41;;;;;;;25.17;17.10;;;;;;;3.67;82.16;96398.53;5078309;28;20086;-75
2021/04/19 04:39:13;;;;;;;27.50;16.87;;;;;;;3.66;81.84;96391.69;5075480;28;20143;-75
2021/04/19 04:41:45;;;;;;;;;;;;;;;3.64;82.13;96394.38;5081730;28;20085;-76
2021/04/19 04:44:16;;;;;;;24.83;17.30;;;;;;;3.67;81.60;96395.94;5077243;28;19912;-75
2021/04/19 04:47:06;;;;;;;26.00;17.07;;;;;;;3.64;81.23;96406.56;5071350;28;20078;-77
2021/04/19 04:49:40;;;;;;;29.23;21.13;;;;;;;3.57;82.66;96395.78;5076133;28;20128;-76
2021/04/19 04:52:08;;;;;;;33.00;21.25;;;;;;;3.68;83.09;96402.78;5069333;28;20039;-75
2021/04/19 04:54:36;;;;;;;31.83;20.97;;;;;;;3.67;83.40;96401.13;5084808;28;20085;-76
2021/04/19 04:57:04;;;;;;;30.47;20.10;;;;;;;3.62;82.65;96398.88;5051457;28;20089;-75
2021/04/19 04:59:31;;;;;;;32.00;20.70;;;;;;;3.63;83.55;96397.09;5052915;28;20106;-75
2021/04/19 05:01:58;;;;;;;34.40;23.83;;;;;;;3.63;83.34;96400.53;5075919;28;20037;-75
2021/04/19 05:04:26;;;;;;;29.20;19.57;;;;;;;3.69;83.31;96409.63;5075229;28;20381;-76
2021/04/19 05:06:53;;;;;;;28.93;20.13;;;;;;;3.75;82.92;96404.81;5062213;28;20035;-76
2021/04/19 05:09:19;;;;;;;30.17;20.63;;;;;;;3.77;82.44;96408.13;5069620;28;20028;-75
2021/04/19 05:11:44;;;;;;;28.73;19.17;;;;;;;3.85;82.04;96411.94;5077627;28;20035;-75
2021/04/19 05:14:10;;;;;;;28.90;18.90;;;;;;;3.84;81.66;96411.13;5075205;28;20469;-75
2021/04/19 05:16:37;;;;;;;23.90;17.27;;;;;;;3.89;82.08;96408.16;5080988;28;20042;-76
2021/04/19 05:19:05;;;;;;;30.27;19.33;;;;;;;3.93;82.37;96407.84;5063336;28;20035;-76
2021/04/19 05:21:32;;;;;;;27.20;19.93;;;;;;;3.97;83.20;96406.66;5062930;28;20054;-77
2021/04/19 05:23:58;;;;;;;29.53;20.20;;;;;;;3.99;82.38;96410.00;5066415;28;20112;-76
2021/04/19 05:26:25;;;;;;;38.60;21.57;;;;;;;4.00;82.66;96414.25;5062185;28;20089;-77
2021/04/19 05:28:52;;;;;;;31.80;20.13;;;;;;;4.10;82.63;96409.19;5053081;28;20028;-76
2021/04/19 05:31:27;;;;;;;26.77;19.17;;;;;;;4.12;81.86;96412.47;5068248;28;20530;-77
2021/04/19 05:33:57;;;;;;;28.33;19.57;;;;;;;4.18;82.11;96408.59;5045936;28;20047;-77
2021/04/19 05:36:25;;;;;;;28.93;18.47;;;;;;;4.25;81.75;96409.78;5061102;28;20154;-76
2021/04/19 05:38:52;;;;;;;29.70;19.57;;;;;;;4.23;81.50;96411.69;5066619;28;20020;-76
2021/04/19 05:41:19;;;;;;;24.60;17.50;;;;;;;4.27;81.03;96412.28;5065754;28;20028;-76
2021/04/19 05:43:45;;;;;;;28.13;19.37;;;;;;;4.22;82.82;96417.81;5057409;28;20029;-77
2021/04/19 05:46:13;;;;;;;28.13;18.87;;;;;;;4.22;83.52;96423.84;5064764;28;20500;-76
2021/04/19 05:48:39;;;;;;;33.60;21.20;;;;;;;4.08;83.67;96425.84;5068115;28;20086;-78
2021/04/19 05:51:37;;;;;;;26.97;19.30;;;;;;;4.15;83.49;96430.47;5072550;28;20093;-75
2021/04/19 05:54:03;;;;;;;27.87;18.70;;;;;;;4.13;83.54;96426.34;5029277;28;20613;-77
2021/04/19 05:56:36;;;;;;;27.37;18.30;;;;;;;4.23;83.96;96427.31;5071713;28;20032;-75
2021/04/19 05:59:08;;;;;;;20.20;13.43;;;;;;;4.17;83.34;96425.16;5064166;28;20035;-76
2021/04/19 06:01:39;;;;;;;26.60;17.63;;;;;;;4.21;83.41;96429.19;5059369;28;20033;-76
2021/04/19 06:04:21;;;;;;;27.97;19.47;;;;;;;4.26;83.54;96429.69;5053741;28;20140;-76
2021/04/19 06:06:59;;;;;;;32.73;22.23;;;;;;;4.27;83.86;96420.09;5044081;28;20108;-76
2021/04/19 06:09:49;;;;;;;33.50;21.75;;;;;;;4.34;83.84;96426.50;5051958;28;20125;-77
2021/04/19 06:12:44;;;;;;;33.93;19.07;;;;;;;4.38;82.91;96430.53;5058712;28;20418;-77
2021/04/19 06:15:14;;;;;;;26.40;19.13;;;;;;;4.49;83.03;96422.72;5048722;28;20032;-76
2021/04/19 06:17:48;;;;;;;26.80;18.57;;;;;;;4.48;82.86;96421.06;5074385;28;20407;-76
2021/04/19 06:20:15;;;;;;;24.47;17.20;;;;;;;4.51;82.39;96427.81;5076017;28;20485;-76
2021/04/19 06:22:42;;;;;;;24.17;16.57;;;;;;;4.53;82.50;96426.75;5061420;28;20026;-77
2021/04/19 06:25:12;;;;;;;26.10;18.00;;;;;;;4.54;82.41;96425.81;5056900;28;20028;-76
2021/04/19 06:27:39;;;;;;;28.40;17.77;;;;;;;4.62;83.06;96426.03;5061618;28;20067;-76
2021/04/19 06:30:12;;;;;;;26.47;17.93;;;;;;;4.64;82.70;96420.72;5067856;28;20044;-76
2021/04/19 06:32:39;;;;;;;25.63;18.90;;;;;;;4.75;82.84;96427.72;5067154;28;20047;-78
2021/04/19 06:35:06;;;;;;;26.60;18.17;;;;;;;4.78;83.36;96425.69;5073046;28;20064;-76
2021/04/19 06:37:31;;;;;;;27.37;18.27;;;;;;;4.79;83.12;96421.31;5069752;28;20036;-76
2021/04/19 06:39:57;;;;;;;25.97;17.30;;;;;;;4.92;83.67;96425.44;5057481;28;20020;-77
2021/04/19 06:42:23;;;;;;;26.83;19.13;;;;;;;5.02;82.99;96422.13;5076580;28;20125;-77
2021/04/19 06:44:49;;;;;;;26.30;18.17;;;;;;;4.97;83.10;96425.94;5068886;28;20026;-77
2021/04/19 06:47:15;;;;;;;29.17;19.20;;;;;;;5.03;83.48;96429.84;5063000;28;20079;-76
2021/04/19 06:49:43;;;;;;;29.83;17.07;;;;;;;5.04;81.98;96426.28;5064124;28;20020;-77
2021/04/19 06:52:10;;;;;;;25.47;16.50;;;;;;;5.00;81.78;96421.41;5076416;28;20052;-77
2021/04/19 06:54:37;;;;;;;23.90;16.67;;;;;;;5.08;82.50;96425.09;5065520;28;20091;-77
2021/04/19 06:57:07;;;;;;;24.13;16.90;;;;;;;5.10;82.58;96422.38;5069055;28;20032;-75
2021/04/19 06:59:36;;;;;;;25.47;17.53;;;;;;;5.23;82.48;96417.00;5061236;28;20039;-78
2021/04/19 07:02:05;;;;;;;32.50;19.57;;;;;;;5.55;82.22;96417.88;5074317;28;20017;-76
2021/04/19 07:04:33;;;;;;;27.17;18.27;;;;;;;5.67;80.67;96413.44;5081516;28;20469;-77
2021/04/19 07:06:59;;;;;;;28.27;19.07;;;;;;;5.70;81.15;96412.34;5067796;28;20040;-78
2021/04/19 07:09:27;;;;;;;26.53;17.33;;;;;;;5.70;81.51;96413.19;5055555;28;20039;-77
2021/04/19 07:12:17;;;;;;;23.60;15.23;;;;;;;5.72;80.26;96416.50;5059151;28;20030;-77
2021/04/19 07:14:47;;;;;;;25.57;16.43;;;;;;;5.91;81.95;96421.88;5069777;28;20064;-77
2021/04/19 07:17:13;;;;;;;21.47;15.30;;;;;;;6.02;79.75;96422.81;5060989;28;20493;-76
2021/04/19 07:19:39;;;;;;;22.13;14.90;;;;;;;5.90;79.93;96419.38;5074449;28;20100;-78
2021/04/19 07:22:05;;;;;;;22.27;15.37;;;;;;;6.04;79.75;96426.13;5058830;28;20023;-77
2021/04/19 07:24:33;;;;;;;28.07;17.23;;;;;;;6.42;80.41;96422.09;5067792;28;20029;-77
2021/04/19 07:27:02;;;;;;;28.73;18.07;;;;;;;6.52;80.07;96421.19;5078249;28;20026;-77
2021/04/19 07:29:28;;;;;;;24.87;16.20;;;;;;;6.78;79.83;96421.59;5068111;28;20029;-78
2021/04/19 07:31:56;;;;;;;24.10;15.47;;;;;;;6.98;76.70;96416.47;5080121;28;20020;-76
2021/04/19 07:34:23;;;;;;;22.47;15.20;;;;;;;7.17;78.62;96419.09;5076072;28;20450;-78
2021/04/19 07:36:59;;;;;;;24.83;16.10;;;;;;;6.94;77.56;96421.13;5061132;28;20031;-78
2021/04/19 07:39:29;;;;;;;22.87;15.93;;;;;;;6.94;76.01;96413.28;5073940;28;20028;-78
2021/04/19 07:41:57;;;;;;;22.53;15.93;;;;;;;7.13;76.83;96415.13;5067615;28;20028;-77
2021/04/19 07:44:35;;;;;;;22.43;15.20;;;;;;;7.12;76.49;96416.09;5071428;28;20431;-78
2021/04/19 07:47:31;;;;;;;28.77;16.27;;;;;;;7.16;76.30;96420.06;5062345;28;20402;-78
2021/04/19 07:50:09;;;;;;;22.23;13.63;;;;;;;7.30;75.12;96416.25;5090514;28;20035;-75
2021/04/19 07:52:59;;;;;;;26.63;16.07;;;;;;;7.09;74.53;96414.56;5077378;28;20032;-78
2021/04/19 07:55:40;;;;;;;20.57;14.70;;;;;;;7.28;76.91;96413.78;5067856;28;20070;-76
2021/04/19 07:58:23;;;;;;;22.77;15.77;;;;;;;7.22;75.91;96416.13;5073242;28;20040;-78
2021/04/19 08:01:01;;;;;;;22.52;14.18;;;;;;;7.30;75.70;96417.06;5065838;28;20040;-76
2021/04/19 08:03:38;;;;;;;25.00;17.23;;;;;;;7.37;75.72;96416.53;5057753;28;20653;-78
2021/04/19 08:06:24;;;;;;;25.33;16.33;;;;;;;7.42;75.12;96419.59;5071583;28;20047;-77
2021/04/19 08:08:51;;;;;;;22.60;15.73;;;;;;;7.40;75.36;96416.28;5071606;28;20055;-77
2021/04/19 08:11:18;;;;;;;22.07;16.87;;;;;;;7.38;74.94;96419.03;5068420;28;20029;-77
2021/04/19 08:13:45;;;;;;;22.43;15.17;;;;;;;7.39;75.00;96422.47;5075584;28;20040;-78
2021/04/19 08:16:17;;;;;;;21.27;15.70;;;;;;;7.28;74.69;96413.78;5082054;28;20043;-75
2021/04/19 08:18:43;;;;;;;22.50;15.53;;;;;;;7.44;74.87;96417.66;5071557;28;20032;-78
2021/04/19 08:21:10;;;;;;;25.87;15.57;;;;;;;7.43;75.29;96422.06;5070011;28;20024;-76
2021/04/19 08:23:44;;;;;;;23.53;16.00;;;;;;;7.52;74.59;96425.66;5071417;28;20112;-77
2021/04/19 08:26:11;;;;;;;25.77;16.83;;;;;;;7.31;75.02;96418.75;5054817;28;20113;-77
2021/04/19 08:28:48;;;;;;;24.53;17.50;;;;;;;7.22;75.43;96421.34;5082613;28;20034;-77
2021/04/19 08:31:15;;;;;;;22.97;16.23;;;;;;;7.31;75.13;96425.78;5058029;28;20051;-77
2021/04/19 08:33:45;;;;;;;22.60;15.87;;;;;;;7.48;75.23;96413.81;5059994;28;20105;-77
2021/04/19 08:36:13;;;;;;;22.83;16.30;;;;;;;7.56;75.70;96420.03;5073499;28;20688;-76
2021/04/19 08:38:41;;;;;;;25.47;16.73;;;;;;;7.76;73.87;96413.00;5057457;28;20024;-77
2021/04/19 08:41:08;;;;;;;23.97;16.13;;;;;;;7.87;74.49;96411.22;5076463;28;20047;-77
2021/04/19 08:43:35;;;;;;;28.90;20.23;;;;;;;7.90;73.12;96414.38;5071514;28;20139;-77
2021/04/19 08:46:05;;;;;;;27.23;18.80;;;;;;;7.99;74.21;96410.13;5062531;28;20114;-77
2021/04/19 08:48:32;;;;;;;29.80;19.17;;;;;;;8.24;72.49;96412.16;5068771;28;20085;-77
2021/04/19 08:51:02;;;;;;;28.03;18.27;;;;;;;7.97;72.91;96427.75;5066501;28;20052;-77
2021/04/19 08:53:28;;;;;;;24.20;17.50;;;;;;;8.18;72.53;96417.97;5057858;28;20098;-77
2021/04/19 08:55:54;;;;;;;22.70;16.17;;;;;;;8.10;72.25;96419.63;5067984;28;20074;-78
2021/04/19 08:58:20;;;;;;;23.97;16.63;;;;;;;8.10;73.37;96420.44;5050231;28;20059;-77
2021/04/19 09:00:52;;;;;;;26.27;17.20;;;;;;;8.25;73.00;96423.47;5078308;28;20025;-78
2021/04/19 09:03:20;;;;;;;22.00;15.90;;;;;;;8.34;71.93;96427.84;5073695;28;20393;-76
2021/04/19 09:05:47;;;;;;;25.93;17.77;;;;;;;8.32;71.60;96419.31;5074965;28;20024;-77
2021/04/19 09:08:22;;;;;;;27.80;17.83;;;;;;;8.26;72.87;96419.88;5077762;28;20152;-77
2021/04/19 09:10:57;;;;;;;25.60;18.20;;;;;;;8.31;72.48;96427.31;5060583;28;20115;-77
2021/04/19 09:13:42;;;;;;;25.97;17.37;;;;;;;8.27;72.38;96424.16;5079262;28;20032;-77
2021/04/19 09:16:18;;;;;;;24.90;17.20;;;;;;;8.09;73.25;96429.28;5055115;28;20043;-77
2021/04/19 09:18:54;;;;;;;26.03;17.70;;;;;;;8.23;73.04;96434.09;5048808;28;20929;-76
2021/04/19 09:21:40;;;;;;;26.20;17.47;;;;;;;8.38;72.22;96425.81;5063775;28;20103;-76
2021/04/19 09:24:18;;;;;;;26.17;17.07;;;;;;;8.34;72.31;96435.72;5065397;28;20036;-78
2021/04/19 09:26:58;;;;;;;26.67;18.93;;;;;;;8.31;73.00;96427.31;5058703;28;20061;-77
2021/04/19 09:29:25;;;;;;;24.37;16.77;;;;;;;8.31;71.69;96427.31;5079757;28;20069;-77
2021/04/19 09:32:06;;;;;;;23.97;16.37;;;;;;;8.38;71.27;96428.44;5060329;28;20048;-76
2021/04/19 09:34:53;;;;;;;24.37;17.80;;;;;;;8.65;71.39;96425.91;5048368;28;20089;-77
2021/04/19 09:37:19;;;;;;;26.53;17.80;;;;;;;8.96;69.35;96428.28;5080760;28;20035;-76
2021/04/19 09:39:55;;;;;;;24.93;18.20;;;;;;;9.08;70.13;96432.34;5064500;28;20043;-77
2021/04/19 09:43:03;;;;;;;25.70;17.57;;;;;;;8.89;69.65;96424.59;5076948;28;20035;-77
2021/04/19 09:45:41;;;;;;;25.10;17.63;;;;;;;9.01;69.34;96426.03;5056797;28;20036;-78
2021/04/19 09:48:27;;;;;;;25.97;17.83;;;;;;;9.35;68.83;96426.28;5060946;28;20045;-77
2021/04/19 09:50:54;;;;;;;25.53;18.77;;;;;;;9.00;69.18;96427.00;5014758;28;20051;-77
2021/04/19 09:53:20;;;;;;;26.37;18.63;;;;;;;9.23;69.67;96424.03;5069616;28;20043;-77
2021/04/19 09:55:45;;;;;;;26.13;18.93;;;;;;;9.34;69.01;96424.63;5052097;28;20031;-76
2021/04/19 09:58:13;;;;;;;26.53;18.73;;;;;;;9.33;69.42;96419.53;5065719;28;20025;-76
2021/04/19 10:00:39;;;;;;;27.70;18.87;;;;;;;9.35;67.44;96417.56;5065536;28;20039;-77
2021/04/19 10:03:06;;;;;;;24.70;17.73;;;;;;;9.16;68.91;96423.78;5073761;28;20024;-76
2021/04/19 10:05:33;;;;;;;25.13;17.07;;;;;;;9.28;68.05;96416.53;5057718;28;20385;-78
2021/04/19 10:08:03;;;;;;;23.67;16.57;;;;;;;9.58;67.07;96412.75;5074054;28;20103;-77
2021/04/19 10:10:29;;;;;;;23.07;15.90;;;;;;;9.91;66.58;96408.63;5057628;28;20078;-78
2021/04/19 10:12:54;;;;;;;25.10;17.63;;;;;;;9.77;66.93;96414.41;5073240;28;20025;-76
2021/04/19 10:15:22;;;;;;;26.27;16.17;;;;;;;9.73;67.02;96411.28;5075586;28;20036;-75
2021/04/19 10:17:49;;;;;;;23.90;16.63;;;;;;;9.87;65.29;96407.28;5072683;28;20162;-75
2021/04/19 10:20:19;;;;;;;23.17;17.40;;;;;;;9.91;65.61;96406.00;5071489;28;20032;-76
2021/04/19 10:22:46;;;;;;;20.53;15.80;;;;;;;9.70;66.34;96410.75;5054313;28;20137;-77
2021/04/19 10:25:12;;;;;;;24.67;17.07;;;;;;;9.69;65.91;96394.13;5076826;28;20032;-76
2021/04/19 10:27:39;;;;;;;24.17;16.43;;;;;;;10.10;65.51;96407.66;5060129;28;20031;-76
2021/04/19 10:30:17;;;;;;;23.93;15.20;;;;;;;10.12;65.48;96403.88;5058348;28;20020;-75
2021/04/19 10:32:47;;;;;;;23.10;15.87;;;;;;;10.32;65.78;96406.34;5050054;28;20112;-76
2021/04/19 10:35:34;;;;;;;21.07;16.40;;;;;;;10.20;64.19;96412.81;5057315;28;20187;-76
2021/04/19 10:38:00;;;;;;;25.10;16.43;;;;;;;10.29;64.52;96401.41;5070607;28;20036;-76
2021/04/19 10:40:26;;;;;;;19.53;14.53;;;;;;;10.44;63.81;96402.50;5075233;28;20835;-76
2021/04/19 10:43:14;;;;;;;22.40;15.73;;;;;;;10.18;64.46;96396.38;5070745;28;20036;-77
2021/04/19 10:45:43;;;;;;;21.70;15.10;;;;;;;10.51;64.59;96393.03;5073175;28;20405;-76
2021/04/19 10:48:19;;;;;;;22.20;15.03;;;;;;;10.73;63.41;96394.31;5060320;28;20033;-76
2021/04/19 10:50:45;;;;;;;19.60;14.37;;;;;;;10.92;65.17;96398.50;5045426;28;20032;-76
2021/04/19 10:53:11;;;;;;;22.77;15.47;;;;;;;10.72;63.65;96387.38;5066333;28;20162;-76
2021/04/19 10:55:37;;;;;;;24.03;16.10;;;;;;;10.58;64.84;96395.84;5062797;28;20758;-76
2021/04/19 10:58:04;;;;;;;22.53;15.83;;;;;;;10.57;62.80;96392.41;5064329;28;20472;-77
2021/04/19 11:00:29;;;;;;;23.47;16.27;;;;;;;10.31;64.84;96389.78;5070838;28;20068;-76
2021/04/19 11:02:56;;;;;;;22.50;17.10;;;;;;;9.88;68.08;96388.75;5041053;28;20447;-77
2021/04/19 11:05:22;;;;;;;19.77;15.00;;;;;;;10.16;68.13;96386.03;5059928;28;20032;-76
2021/04/19 11:07:47;;;;;;;19.57;15.17;;;;;;;9.97;66.67;96389.66;5074037;28;20517;-77
2021/04/19 11:10:22;;;;;;;22.67;15.50;;;;;;;9.83;66.74;96390.19;5057307;28;20046;-75
2021/04/19 11:12:54;;;;;;;22.37;15.60;;;;;;;9.85;67.23;96388.22;5065158;28;20081;-76
2021/04/19 11:15:21;;;;;;;21.97;15.17;;;;;;;9.58;68.88;96384.69;5073071;28;20043;-76
2021/04/19 11:17:47;;;;;;;26.17;16.13;;;;;;;9.34;71.25;96389.69;5057424;28;20040;-75
2021/04/19 11:20:23;;;;;;;21.53;14.70;;;;;;;9.39;71.98;96385.66;5053715;28;20032;-77
2021/04/19 11:22:54;;;;;;;22.17;15.83;;;;;;;9.53;70.03;96386.13;5073394;28;20036;-77
2021/04/19 11:25:29;;;;;;;20.57;14.83;;;;;;;9.29;70.04;96386.66;5061212;28;20489;-78
2021/04/19 11:28:29;;;;;;;18.97;12.97;;;;;;;9.59;68.92;96385.50;5054314;28;20107;-76
2021/04/19 11:31:10;;;;;;;50.60;37.43;;;;;;;9.43;69.99;96383.56;5043060;28;20206;-75
2021/04/19 11:33:36;;;;;;;22.93;16.03;;;;;;;9.73;68.41;96381.56;5047633;28;20040;-77
2021/04/19 11:36:06;;;;;;;29.13;20.07;;;;;;;9.49;67.97;96377.72;5077380;28;20553;-76
2021/04/19 11:38:37;;;;;;;19.57;14.37;;;;;;;9.47;68.23;96377.03;5064225;28;20033;-76
2021/04/19 11:41:05;;;;;;;18.53;13.10;;;;;;;9.43;68.75;96371.25;5065625;28;20122;-75